| time (UTC) | temp F | wind direction | speed knots | gust knots | rain 1hr in | rain 24hr in | rain mn in | humidity % | barometer mb |
| 20260509213016 | 89 | 54 | 1.7 | 4.3 | 0.00 | 0.00 | 0.00 | 40 | 1007.7 |
| 20260509211529 | 88 | 38 | 1.7 | 6.1 | 0.00 | 0.00 | 0.00 | 42 | 1007.9 |
| 20260509210016 | 89 | 26 | 3.5 | 7.0 | 0.00 | 0.00 | 0.00 | 39 | 1008.1 |
| 20260509204513 | 88 | 26 | 0.9 | 5.2 | 0.00 | 0.00 | 0.00 | 44 | 1008.4 |
| 20260509203026 | 88 | 69 | 2.6 | 7.8 | 0.00 | 0.00 | 0.00 | 44 | 1008.5 |
| 20260509201509 | 88 | 44 | 1.7 | 3.5 | 0.00 | 0.00 | 0.00 | 47 | 1008.6 |
| 20260509200007 | 87 | 22 | 2.6 | 5.2 | 0.00 | 0.00 | 0.00 | 48 | 1008.9 |
| 20260509194505 | 87 | 309 | 0.9 | 4.3 | 0.00 | 0.00 | 0.00 | 49 | 1008.9 |
| 20260509193003 | 86 | 61 | 3.5 | 7.8 | 0.00 | 0.00 | 0.00 | 51 | 1009.0 |
| 20260509191502 | 86 | 38 | 2.6 | 5.2 | 0.00 | 0.00 | 0.00 | 52 | 1009.1 |
| 20260509190001 | 86 | 350 | 2.6 | 7.8 | 0.00 | 0.00 | 0.00 | 53 | 1009.3 |
| 20260509184558 | 86 | 317 | 0.0 | 7.8 | 0.00 | 0.00 | 0.00 | 55 | 1009.4 |
| 20260509183046 | 85 | 202 | 0.9 | 7.8 | 0.00 | 0.00 | 0.00 | 54 | 1009.8 |
| 20260509181554 | 85 | 259 | 1.7 | 6.1 | 0.00 | 0.00 | 0.00 | 58 | 1009.9 |
| 20260509180042 | 84 | 271 | 0.9 | 6.1 | 0.00 | 0.00 | 0.00 | 58 | 1010.0 |
| 20260509174541 | 84 | 213 | 0.0 | 7.8 | 0.00 | 0.00 | 0.00 | 59 | 1010.1 |
| 20260509173037 | 83 | 54 | 2.6 | 6.1 | 0.00 | 0.00 | 0.00 | 60 | 1010.3 |
| 20260509171536 | 83 | 297 | 0.9 | 8.7 | 0.00 | 0.00 | 0.00 | 61 | 1010.4 |
| 20260509170034 | 82 | 32 | 2.6 | 7.0 | 0.00 | 0.00 | 0.00 | 61 | 1010.4 |
| 20260509164533 | 82 | 319 | 3.5 | 8.7 | 0.00 | 0.00 | 0.00 | 63 | 1010.6 |
| 20260509163046 | 81 | 5 | 3.5 | 7.0 | 0.00 | 0.00 | 0.00 | 62 | 1010.6 |
| 20260509161528 | 80 | 281 | 4.3 | 8.7 | 0.00 | 0.00 | 0.00 | 62 | 1010.8 |
| 20260509160027 | 80 | 313 | 2.6 | 7.0 | 0.00 | 0.00 | 0.00 | 65 | 1010.9 |
| 20260509154524 | 79 | 277 | 0.9 | 7.0 | 0.00 | 0.00 | 0.00 | 65 | 1010.8 |
| 20260509153022 | 78 | 292 | 1.7 | 7.8 | 0.00 | 0.00 | 0.00 | 70 | 1010.6 |
| 20260509151516 | 77 | 58 | 1.7 | 5.2 | 0.00 | 0.00 | 0.00 | 71 | 1010.5 |
| 20260509150014 | 76 | 296 | 1.7 | 7.0 | 0.00 | 0.00 | 0.00 | 71 | 1010.6 |
| 20260509144513 | 76 | 5 | 2.6 | 7.8 | 0.00 | 0.00 | 0.00 | 74 | 1010.5 |
| 20260509143009 | 75 | 321 | 2.6 | 7.0 | 0.00 | 0.00 | 0.00 | 74 | 1010.6 |
| 20260509141505 | 74 | 31 | 2.6 | 7.0 | 0.00 | 0.00 | 0.00 | 80 | 1010.7 |
| 20260509140003 | 72 | 303 | 2.6 | 8.7 | 0.00 | 0.00 | 0.00 | 81 | 1010.8 |
| 20260509134601 | 72 | 290 | 3.5 | 8.7 | 0.00 | 0.00 | 0.00 | 81 | 1011.0 |
| 20260509133105 | 71 | 306 | 1.7 | 7.0 | 0.00 | 0.00 | 0.00 | 82 | 1010.7 |
| 20260509131557 | 70 | 301 | 3.5 | 7.8 | 0.00 | 0.00 | 0.00 | 82 | 1010.6 |
| 20260509130101 | 69 | 296 | 0.9 | 5.2 | 0.00 | 0.00 | 0.00 | 83 | 1010.7 |
| 20260509124606 | 69 | 265 | 1.7 | 5.2 | 0.00 | 0.00 | 0.00 | 84 | 1010.7 |
| 20260509123056 | 67 | 92 | 0.0 | 1.7 | 0.00 | 0.00 | 0.00 | 86 | 1010.6 |
| 20260509121555 | 66 | 95 | 0.0 | 0.0 | 0.00 | 0.00 | 0.00 | 86 | 1010.5 |
| 20260509120054 | 65 | 95 | 0.0 | 0.0 | 0.00 | 0.00 | 0.00 | 85 | 1010.4 |
| 20260509114558 | 66 | 94 | 0.0 | 0.0 | 0.00 | 0.00 | 0.00 | 83 | 1010.1 |
| 20260509113050 | 67 | 94 | 0.0 | 1.7 | 0.00 | 0.00 | 0.00 | 82 | 1009.9 |
| 20260509111547 | 68 | 46 | 0.0 | 0.9 | 0.00 | 0.00 | 0.00 | 80 | 1009.5 |
| 20260509110053 | 68 | 29 | 0.9 | 5.2 | 0.00 | 0.00 | 0.00 | 79 | 1009.4 |
| 20260509104546 | 68 | 306 | 1.7 | 7.0 | 0.00 | 0.00 | 0.00 | 77 | 1009.4 |
| 20260509103145 | 69 | 292 | 2.6 | 6.1 | 0.00 | 0.00 | 0.00 | 76 | 1009.6 |
| 20260509101543 | 70 | 313 | 5.2 | 10.4 | 0.00 | 0.00 | 0.00 | 77 | 1009.4 |
| 20260509100044 | 71 | 300 | 1.7 | 5.2 | 0.00 | 0.00 | 0.00 | 84 | 1009.4 |
| 20260509094542 | 71 | 325 | 4.3 | 17.4 | 0.00 | 0.00 | 0.00 | 85 | 1009.1 |
| 20260509093039 | 71 | 162 | 1.7 | 8.7 | 0.00 | 0.00 | 0.00 | 89 | 1006.9 |
| 20260509091537 | 70 | 134 | 1.7 | 7.8 | 0.00 | 0.00 | 0.00 | 90 | 1006.1 |
| 20260509090032 | 70 | 169 | 1.7 | 6.1 | 0.00 | 0.00 | 0.00 | 90 | 1006.9 |
| 20260509084532 | 70 | 154 | 0.9 | 6.1 | 0.00 | 0.00 | 0.00 | 90 | 1007.1 |
| 20260509083027 | 69 | 161 | 0.9 | 4.3 | 0.00 | 0.00 | 0.00 | 90 | 1007.6 |
| 20260509081525 | 69 | 151 | 0.9 | 3.5 | 0.00 | 0.00 | 0.00 | 90 | 1008.1 |
| 20260509080032 | 69 | 149 | 0.9 | 5.2 | 0.00 | 0.00 | 0.00 | 90 | 1008.5 |
| 20260509074522 | 70 | 161 | 0.0 | 4.3 | 0.00 | 0.00 | 0.00 | 90 | 1008.9 |
| 20260509073036 | 70 | 184 | 0.0 | 3.5 | 0.00 | 0.00 | 0.00 | 90 | 1009.9 |
| 20260509071517 | 70 | 188 | 0.0 | 1.7 | 0.00 | 0.00 | 0.00 | 90 | 1010.9 |
| 20260509070020 | 70 | 286 | 1.7 | 10.4 | 0.00 | 0.00 | 0.00 | 91 | 1012.1 |
| 20260509064513 | 69 | 272 | 2.6 | 7.8 | 0.00 | 0.00 | 0.00 | 91 | 1012.2 |
| 20260509063011 | 69 | 283 | 1.7 | 3.5 | 0.00 | 0.00 | 0.00 | 92 | 1011.8 |
| 20260509061509 | 69 | 303 | 1.7 | 3.5 | 0.00 | 0.00 | 0.00 | 92 | 1012.0 |
| 20260509060015 | 69 | 303 | 0.0 | 2.6 | 0.00 | 0.00 | 0.00 | 92 | 1011.3 |
| 20260509054513 | 69 | 297 | 0.0 | 2.6 | 0.00 | 0.00 | 0.00 | 91 | 1011.5 |
| 20260509053011 | 68 | 52 | 0.9 | 2.6 | 0.00 | 0.00 | 0.00 | 91 | 1011.3 |
| 20260509051501 | 69 | 125 | 0.0 | 0.0 | 0.00 | 0.00 | 0.00 | 90 | 1010.4 |
| 20260509050058 | 69 | 125 | 0.0 | 0.0 | 0.00 | 0.00 | 0.00 | 89 | 1010.3 |
| 20260509044559 | 70 | 125 | 0.0 | 0.0 | 0.00 | 0.00 | 0.00 | 88 | 1010.4 |
| 20260509043104 | 70 | 125 | 0.0 | 0.0 | 0.00 | 0.00 | 0.00 | 88 | 1010.4 |
| 20260509041557 | 71 | 125 | 0.0 | 0.0 | 0.00 | 0.00 | 0.00 | 88 | 1010.5 |
| 20260509040106 | 71 | 125 | 0.0 | 0.9 | 0.00 | 0.00 | 0.00 | 87 | 1010.3 |
| 20260509034556 | 72 | 125 | 0.9 | 3.5 | 0.00 | 0.00 | 0.00 | 86 | 1009.9 |
| 20260509033056 | 72 | 154 | 0.9 | 1.7 | 0.00 | 0.00 | 0.00 | 86 | 1009.3 |
| 20260509031555 | 72 | 178 | 0.0 | 4.3 | 0.00 | 0.00 | 0.00 | 86 | 1009.3 |
| 20260509030055 | 72 | 186 | 0.9 | 4.3 | 0.00 | 0.00 | 0.00 | 85 | 1009.1 |
| 20260509024554 | 73 | 160 | 0.9 | 7.0 | 0.00 | 0.00 | 0.00 | 85 | 1008.3 |
| 20260509023053 | 73 | 138 | 0.9 | 4.3 | 0.00 | 0.00 | 0.00 | 84 | 1008.5 |
| 20260509021553 | 73 | 119 | 0.0 | 3.5 | 0.00 | 0.00 | 0.00 | 84 | 1008.7 |
| 20260509020051 | 73 | 143 | 0.0 | 0.9 | 0.00 | 0.00 | 0.00 | 83 | 1008.7 |
| 20260509014550 | 73 | 143 | 0.0 | 0.0 | 0.00 | 0.00 | 0.00 | 82 | 1008.9 |
| 20260509013100 | 74 | 143 | 0.0 | 1.7 | 0.00 | 0.00 | 0.00 | 82 | 1008.9 |
| 20260509011549 | 74 | 143 | 0.0 | 0.9 | 0.00 | 0.00 | 0.00 | 81 | 1008.7 |
| 20260509010048 | 74 | 142 | 0.0 | 1.7 | 0.00 | 0.00 | 0.00 | 81 | 1008.5 |
| 20260509004609 | 74 | 142 | 0.0 | 1.7 | 0.00 | 0.00 | 0.00 | 81 | 1008.0 |
| 20260509003049 | 74 | 142 | 0.9 | 3.5 | 0.00 | 0.00 | 0.00 | 80 | 1008.0 |
| 20260509001544 | 74 | 140 | 0.0 | 2.6 | 0.00 | 0.00 | 0.00 | 80 | 1008.5 |
| 20260509000044 | 74 | 140 | 0.0 | 2.6 | 0.00 | 0.00 | 0.00 | 79 | 1008.6 |
| 20260508234546 | 74 | 140 | 0.0 | 2.6 | 0.00 | 0.00 | 0.00 | 79 | 1008.8 |
| 20260508233144 | 74 | 140 | 0.0 | 3.5 | 0.00 | 0.00 | 0.00 | 79 | 1008.6 |
| 20260508231541 | 74 | 149 | 0.0 | 4.3 | 0.00 | 0.00 | 0.00 | 79 | 1008.7 |
| 20260508230052 | 74 | 124 | 0.0 | 3.5 | 0.00 | 0.00 | 0.00 | 78 | 1008.7 |
| 20260508224540 | 74 | 160 | 0.9 | 6.1 | 0.00 | 0.00 | 0.00 | 77 | 1008.7 |
| 20260508223036 | 75 | 188 | 0.9 | 5.2 | 0.00 | 0.00 | 0.00 | 77 | 1008.6 |
| 20260508221534 | 74 | 156 | 1.7 | 7.8 | 0.00 | 0.00 | 0.00 | 78 | 1008.7 |
| 20260508220031 | 73 | 173 | 1.7 | 6.1 | 0.00 | 0.00 | 0.00 | 79 | 1008.7 |
| 20260508214530 | 73 | 153 | 1.7 | 7.8 | 0.00 | 0.00 | 0.00 | 78 | 1008.9 |
| 20260508213029 | 73 | 150 | 1.7 | 6.1 | 0.00 | 0.00 | 0.00 | 78 | 1009.2 |